Terminal Aerodrome Forecast
Issued by NWS

Home | Current Version | Previous Version | Graphics & Text | Print | Product List | Glossary On
Versions: 1 2 3 4 5 6 7 8 9 10 11 12 13 14
000
FTUS43 KTOP 031736
TAFFOE
TAF
KFOE 031736Z 0318/0418 24007KT P6SM FEW060 SCT150
     FM032300 14006KT P6SM VCTS SCT050CB
     FM040500 17006KT P6SM SCT060 BKN150=

USA.gov is the U.S. government's official web portal to all federal, state and local government web resources and services.